Guenther Schulte — VRGK8 — position and weather

sailwx.info

Track history (hours):
 
Tides and Currents Weather Stations Pressure Air Temp Water Temp Dewpoint Dewpoint Depression Visibility Wind Speed Wind Dir Waves Ship Positions

Guenther Schulte

Last reported at 2016-May-30 01:33 UTC. Time now 2016-May-31 03:55 UTC.
Position S 36°15' E 150°36'.

Length 231 m; draft 9.6 m.

Type: Ship (hazmat cat C). MMSI: 477728800.

Date/timePositionNaut miles runAvg speedWind from/ knotsBaromVisibWave heightAir tempDewpointWater temp
2016-May-30 01:33S 36°15' E 150°36'1111.2
2016-May-30 00:33S 36°26' E 150°32'1211.6
2016-May-29 23:33S 36°37' E 150°28'1211.7
2016-May-29 22:34S 36°48' E 150°24'1313.3
2016-May-29 21:34S 37°01' E 150°20'1313.1
2016-May-29 20:34S 37°14' E 150°17'1312.6
2016-May-29 19:33S 37°26' E 150°13'1312.6
2016-May-29 18:33S 37°38' E 150°08'1212.1
2016-May-29 17:34S 37°48' E 149°59'1212.4
2016-May-29 16:33S 37°55' E 149°47'1212.4
2016-May-29 15:33S 38°03' E 149°34'1312.5
2016-May-29 14:33S 38°10' E 149°21'1312.6
2016-May-29 13:33S 38°18' E 149°09'1312.3
2016-May-29 12:32S 38°25' E 148°56'7712.8
2016-May-29 06:32S 39°00' E 147°28'1312.2
2016-May-29 05:29S 39°05' E 147°13'1112.0
2016-May-29 04:33S 39°09' E 146°59'1212.1
2016-May-29 03:33S 39°13' E 146°44'1212.1
2016-May-29 02:32S 39°16' E 146°29'1515.1
2016-May-29 01:33S 39°15' E 146°10'1616.2
2016-May-29 00:33S 39°08' E 145°51'15 0.4
2016-May-27 11:30S 38°56' E 145°39'1616.6
2016-May-27 10:33S 39°03' E 145°57'1616.4
2016-May-27 09:33S 39°11' E 146°15'1615.6
2016-May-27 08:33S 39°08' E 146°35'1615.5
2016-May-27 07:33S 39°03' E 146°54'1615.6
2016-May-27 06:34S 38°58' E 147°13'9715.8
2016-May-27 00:27S 38°31' E 149°12'1314.4
2016-May-26 23:33S 38°28' E 149°28'1414.0
2016-May-26 22:33S 38°25' E 149°45'1313.4
2016-May-26 21:33S 38°22' E 150°02'1312.9
2016-May-26 20:33S 38°20' E 150°18'  
2016-May-23 09:06S 36°12' E 174°57'611.0
2016-May-23 08:33S 36°18' E 174°58'10 9.8
2016-May-23 07:33S 36°28' E 174°60'10 9.5
2016-May-23 06:33S 36°37' E 174°57'10 9.9
2016-May-23 05:33S 36°45' E 174°50'6 0.5
2016-May-22 18:08S 36°51' E 174°47'2 2.6
2016-May-22 17:33S 36°50' E 174°49'10 9.8
2016-May-22 16:33S 36°41' E 174°53'4 4.2
2016-May-22 15:33S 36°38' E 174°57'8 8.3
2016-May-22 14:33S 36°32' E 175°04'9 8.6
2016-May-22 13:33S 36°26' E 175°12'  
Track history (hours):
 
Tides and Currents Weather Stations Pressure Air Temp Water Temp Dewpoint Dewpoint Depression Visibility Wind Speed Wind Dir Waves Ship Positions

Guenther Schulte

Last reported at 2016-May-30 01:33 UTC. Time now 2016-May-31 03:55 UTC.
Position S 36°15' E 150°36'.

Length 231 m; draft 9.6 m.

Type: Ship (hazmat cat C). MMSI: 477728800.

Date/timePositionNaut miles runAvg speedWind from/ knotsBaromVisibWave heightAir tempDewpointWater temp
2016-May-30 01:33S 36°15' E 150°36'1111.2
2016-May-30 00:33S 36°26' E 150°32'1211.6
2016-May-29 23:33S 36°37' E 150°28'1211.7
2016-May-29 22:34S 36°48' E 150°24'1313.3
2016-May-29 21:34S 37°01' E 150°20'1313.1
2016-May-29 20:34S 37°14' E 150°17'1312.6
2016-May-29 19:33S 37°26' E 150°13'1312.6
2016-May-29 18:33S 37°38' E 150°08'1212.1
2016-May-29 17:34S 37°48' E 149°59'1212.4
2016-May-29 16:33S 37°55' E 149°47'1212.4
2016-May-29 15:33S 38°03' E 149°34'1312.5
2016-May-29 14:33S 38°10' E 149°21'1312.6
2016-May-29 13:33S 38°18' E 149°09'1312.3
2016-May-29 12:32S 38°25' E 148°56'7712.8
2016-May-29 06:32S 39°00' E 147°28'1312.2
2016-May-29 05:29S 39°05' E 147°13'1112.0
2016-May-29 04:33S 39°09' E 146°59'1212.1
2016-May-29 03:33S 39°13' E 146°44'1212.1
2016-May-29 02:32S 39°16' E 146°29'1515.1
2016-May-29 01:33S 39°15' E 146°10'1616.2
2016-May-29 00:33S 39°08' E 145°51'15 0.4
2016-May-27 11:30S 38°56' E 145°39'1616.6
2016-May-27 10:33S 39°03' E 145°57'1616.4
2016-May-27 09:33S 39°11' E 146°15'1615.6
2016-May-27 08:33S 39°08' E 146°35'1615.5
2016-May-27 07:33S 39°03' E 146°54'1615.6
2016-May-27 06:34S 38°58' E 147°13'9715.8
2016-May-27 00:27S 38°31' E 149°12'1314.4
2016-May-26 23:33S 38°28' E 149°28'1414.0
2016-May-26 22:33S 38°25' E 149°45'1313.4
2016-May-26 21:33S 38°22' E 150°02'1312.9
2016-May-26 20:33S 38°20' E 150°18'  
2016-May-23 09:06S 36°12' E 174°57'611.0
2016-May-23 08:33S 36°18' E 174°58'10 9.8
2016-May-23 07:33S 36°28' E 174°60'10 9.5
2016-May-23 06:33S 36°37' E 174°57'10 9.9
2016-May-23 05:33S 36°45' E 174°50'6 0.5
2016-May-22 18:08S 36°51' E 174°47'2 2.6
2016-May-22 17:33S 36°50' E 174°49'10 9.8
2016-May-22 16:33S 36°41' E 174°53'4 4.2
2016-May-22 15:33S 36°38' E 174°57'8 8.3
2016-May-22 14:33S 36°32' E 175°04'9 8.6
2016-May-22 13:33S 36°26' E 175°12'  

Dump ship's entire track history